Forside
METAR-TAF:

METAR-TAF

Lufthavne :

Weno, Mikronesien

Breddekreds: 07-28N, længdekreds: 151-51E, højde: 3 m

Aktuelle vejr

Denne rapport blev lavet for 21 minutter siden, kl. 08:52 UTC
Vind 6 kt fra varierende retninger
Temperatur 29°C
Fugtighed 74%
Tryk 1009 hPa
Sigt: 24.1 km
Nogle få skyer i en højde af 1400 ft
Spredte skyer i en højde af 12000 ft
Brudte skyer i en højde af 28000 ft

METAR: PTKK 230852Z VRB06KT 15SM FEW014 SCT120 BKN280 29/24 A2980 RMK SLP093 8/171 T02890236 52015

Tid: 19:13 (09:13 UTC)

Vejrudsigter

Denne rapport blev lavet for 3 timer og 53 minutter siden, kl. 05:20 UTC
Foreløbig gælder fra 23 på 06 UTC til 24 på 06 UTC
Vind 5 kt fra nord
Sigt: 10 km
Spredte skyer i en højde af 1400 ft
Spredte skyer i en højde af 29000 ft
byger i nærheden

TAF: PTKK 230520Z 2306/2406 01005KT P6SM VCSH SCT014 SCT290

Vejrobservationer og prognoser fra mere end 4000 lufthavne (METAR og TAF).

De gule og røde prikker repræsenterer de meteorologiske stationer.

Flyt musen over at se navnet på stationen.

Så klik over at se vejr observationer og prognoser.

At skifte det kort: Klik på de grønne knapper med et sort kors for at zoome ind; på den grønne knap med en bindestreg for at zoome ud; eller på de grønne pile for tilstødende kort.


METAR-TAF: